Red Oak, NC (27868)

6:21 AM EDT on August 29, 2015 (GMT -0400)
Red Oak | | Change Station
CLOSE
Current Station
Personal Weather Station
Location: Rocky Mount, NC
Elevation: 203 ft
Nearby Weather Stations

Elev 203 ft 36.00 °N, 77.91 °W | Updated 2 minutes ago

Clear
Clear
57.9 °F
Feels Like 57.9 °F
N
0.0
Wind Variable Wind from WNW

Today
High -- | Low -- °F
--% Chance of Precip.
Yesterday
High -- | Low -- °F
Precip. -- in
6:40 AM 7:43 PM
Full, 100% visible
Pressure 30.18 in
Visibility 7.0 miles
Clouds Clear
Dew Point 56 °F
Humidity 94%
Rainfall 0.00 in
Snow Depth Not available.
UV 0 out of 12
Pollen 7.90 out of 12
Air Quality Not available.
Flu Activity Not available.
METAR KRWI 290953Z AUTO 03003KT 7SM CLR 15/14 A3019 RMK AO2 SLP220 T01500144
Pressure 30.18 in
Visibility 7.0 miles
Clouds Clear
Dew Point 56 °F
Humidity 94%
Rainfall 0.00 in
Snow Depth Not available.
UV 0 out of 12
Pollen 7.90 out of 12
Air Quality Not available.
Flu Activity Not available.
METAR KRWI 290953Z AUTO 03003KT 7SM CLR 15/14 A3019 RMK AO2 SLP220 T01500144
Erika has become very unorganized in the face of strong wind shear in the eastern Caribbean Sea. The storm will pass directly over mountainous Hispaniola today, likely weakening it further. If the storm remains intact, it could reach an area favorable for strengthening before moving onto Florida by early next week. Follow the live blog

10-Day Weather Forecast

×

Almanac

Astronomy

Aug. 29, 2015 Rise Set
Actual Time
Civil Twilight
Nautical Twilight
Astronomical Twilight
Moon
Length of Visible Light
Length of Day
Tomorrow will be .
, % of the Moon is Illuminated

Today's Extremes

State Highs State Lows

Community

WunderPhotos

Upload Photos

1,850,633 photos uploaded!

WunderBlogs® & News

Nearby

Air Quality

  Air Quality AQ Index Pollutant
Not available.

Snow Depth

Station Depth Elevation

Earthquake Activity

City Distance Mag. Time & Date
Minimum magnitude displayed is 2.5.

Coastal Water Temperatures

Place Temperature

Stations

Nearby Weather Stations

Station Location Temp. Windchill Dew Point Humidity Wind Precip. Elev Updated Type